createdAt,value
2017-10-23T00:02:07.457Z,10.65
2017-10-23T00:04:34.477Z,10.69
2017-10-23T00:07:00.744Z,10.64
2017-10-23T00:09:27.025Z,10.65
2017-10-23T00:11:53.329Z,10.62
2017-10-23T00:14:19.606Z,10.60
2017-10-23T00:16:45.880Z,10.56
2017-10-23T00:19:12.869Z,10.57
2017-10-23T00:21:39.597Z,10.56
2017-10-23T00:24:05.899Z,10.60
2017-10-23T00:26:32.180Z,10.60
2017-10-23T00:28:59.235Z,10.61
2017-10-23T00:31:26.773Z,10.66
2017-10-23T00:33:53.097Z,10.58
2017-10-23T00:36:19.373Z,10.59
2017-10-23T00:38:45.689Z,10.63
2017-10-23T00:41:12.736Z,10.63
2017-10-23T00:43:39.817Z,10.64
2017-10-23T00:46:06.132Z,10.65
2017-10-23T00:48:32.446Z,10.62
2017-10-23T00:50:59.462Z,10.57
2017-10-23T00:53:25.789Z,10.59
2017-10-23T00:55:52.116Z,10.56
2017-10-23T00:58:18.524Z,10.58
2017-10-23T01:00:44.878Z,10.61
2017-10-23T01:03:11.663Z,10.57
2017-10-23T01:05:38.245Z,10.55
2017-10-23T01:08:04.602Z,10.56
2017-10-23T01:10:30.913Z,10.56
2017-10-23T01:12:57.901Z,10.54
2017-10-23T01:15:25.352Z,10.58
2017-10-23T01:17:52.798Z,10.54
2017-10-23T01:20:20.425Z,10.55
2017-10-23T01:22:47.108Z,10.52
2017-10-23T01:25:14.797Z,10.49
2017-10-23T01:27:41.496Z,10.48
2017-10-23T01:30:08.700Z,10.47
2017-10-23T01:32:35.046Z,10.48
2017-10-23T01:35:01.337Z,10.51
2017-10-23T01:37:27.648Z,10.53
2017-10-23T01:39:54.700Z,10.51
2017-10-23T01:42:21.760Z,10.51
2017-10-23T01:44:48.837Z,10.50
2017-10-23T01:47:15.138Z,10.53
2017-10-23T01:49:41.447Z,10.51
2017-10-23T01:52:07.737Z,10.51
2017-10-23T01:54:34.047Z,10.50
2017-10-23T01:57:00.362Z,10.47
2017-10-23T01:59:26.717Z,10.50
2017-10-23T02:01:53.015Z,10.50
2017-10-23T02:04:20.034Z,10.53
2017-10-23T02:06:46.341Z,10.44
2017-10-23T02:09:12.674Z,10.51
2017-10-23T02:11:38.957Z,10.49
2017-10-23T02:14:05.213Z,10.50
2017-10-23T02:16:31.517Z,10.55
2017-10-23T02:18:57.821Z,10.51
2017-10-23T02:21:24.855Z,10.49
2017-10-23T02:23:51.148Z,10.50
2017-10-23T02:26:17.400Z,10.53
2017-10-23T02:28:43.674Z,10.51
2017-10-23T02:31:10.679Z,10.50
2017-10-23T02:33:36.949Z,10.52
2017-10-23T02:36:03.197Z,10.54
2017-10-23T02:38:29.485Z,10.54
2017-10-23T02:40:55.752Z,10.55
2017-10-23T02:43:22.026Z,10.54
2017-10-23T02:45:48.321Z,10.54
2017-10-23T02:48:14.590Z,10.59
2017-10-23T02:50:40.852Z,10.53
2017-10-23T02:53:08.728Z,10.57
2017-10-23T02:55:34.989Z,10.61
2017-10-23T02:58:01.249Z,10.62
2017-10-23T03:00:27.538Z,10.65
2017-10-23T03:02:53.838Z,10.68
2017-10-23T03:05:20.105Z,10.64
2017-10-23T03:07:46.418Z,10.63
2017-10-23T03:10:12.769Z,10.62
2017-10-23T03:12:39.080Z,10.64
2017-10-23T03:15:05.392Z,10.64
2017-10-23T03:17:31.712Z,10.61
2017-10-23T03:19:58.763Z,10.63
2017-10-23T03:22:25.786Z,10.65
2017-10-23T03:24:52.957Z,10.65
2017-10-23T03:27:20.023Z,10.66
2017-10-23T03:29:46.311Z,10.65
2017-10-23T03:32:12.651Z,10.64
2017-10-23T03:34:39.692Z,10.66
2017-10-23T03:37:05.997Z,10.70
2017-10-23T03:39:32.609Z,10.71
2017-10-23T03:41:58.886Z,10.74
2017-10-23T03:44:25.216Z,10.72
2017-10-23T03:46:51.570Z,10.69
2017-10-23T03:49:17.888Z,10.71
2017-10-23T03:51:44.938Z,10.73
2017-10-23T03:54:11.974Z,10.70
2017-10-23T03:56:39.072Z,10.78
2017-10-23T03:59:05.375Z,10.72
2017-10-23T04:01:31.700Z,10.76
2017-10-23T04:03:59.804Z,10.76
2017-10-23T04:06:26.152Z,10.76
2017-10-23T04:08:52.461Z,10.78
2017-10-23T04:11:19.857Z,10.78
2017-10-23T04:13:47.264Z,10.80
2017-10-23T04:16:15.396Z,10.80
2017-10-23T04:18:42.578Z,10.83
2017-10-23T04:21:08.882Z,10.82
2017-10-23T04:23:36.078Z,10.84
2017-10-23T04:26:03.495Z,10.80
2017-10-23T04:28:29.796Z,10.84
2017-10-23T04:30:56.910Z,10.88
2017-10-23T04:33:23.272Z,10.86
2017-10-23T04:35:50.336Z,10.84
2017-10-23T04:38:17.387Z,10.87
2017-10-23T04:40:43.740Z,10.88
2017-10-23T04:43:10.024Z,10.92
2017-10-23T04:45:37.086Z,10.96
2017-10-23T04:48:04.362Z,10.93
2017-10-23T04:50:30.715Z,10.99
2017-10-23T04:52:57.057Z,11.01
2017-10-23T04:55:23.396Z,11.00
2017-10-23T04:57:50.288Z,11.01
2017-10-23T05:00:16.615Z,11.06
2017-10-23T05:02:42.936Z,10.99
2017-10-23T05:05:10.581Z,11.06
2017-10-23T05:07:39.079Z,11.11
2017-10-23T05:10:06.157Z,11.07
2017-10-23T05:12:32.945Z,11.10
2017-10-23T05:14:59.266Z,11.11
2017-10-23T05:17:25.792Z,11.14
2017-10-23T05:19:52.107Z,11.15
2017-10-23T05:22:19.333Z,11.16
2017-10-23T05:24:45.645Z,11.18
2017-10-23T05:27:13.209Z,11.23
2017-10-23T05:29:39.537Z,11.23
2017-10-23T05:32:06.608Z,11.25
2017-10-23T05:34:32.944Z,11.29
2017-10-23T05:37:00.182Z,11.24
2017-10-23T05:39:26.516Z,11.30
2017-10-23T05:41:52.919Z,11.33
2017-10-23T05:44:19.991Z,11.31
2017-10-23T05:46:46.876Z,11.34
2017-10-23T05:49:13.190Z,11.33
2017-10-23T05:51:39.504Z,11.39
2017-10-23T05:54:05.808Z,11.39
2017-10-23T05:56:32.883Z,11.41
2017-10-23T05:58:59.204Z,11.39
2017-10-23T06:01:25.547Z,11.39
2017-10-23T06:03:51.856Z,11.43
2017-10-23T06:06:18.193Z,11.44
2017-10-23T06:08:44.509Z,11.45
2017-10-23T06:11:10.845Z,11.45
2017-10-23T06:13:37.209Z,11.48
2017-10-23T06:16:03.515Z,11.47
2017-10-23T06:18:29.847Z,11.48
2017-10-23T06:20:56.536Z,11.50
2017-10-23T06:23:23.622Z,11.51
2017-10-23T06:25:49.926Z,11.51
2017-10-23T06:28:17.020Z,11.57
2017-10-23T06:30:43.340Z,11.58
2017-10-23T06:33:09.670Z,11.58
2017-10-23T06:35:36.032Z,11.62
2017-10-23T06:38:02.334Z,11.61
2017-10-23T06:40:28.636Z,11.59
2017-10-23T06:42:55.916Z,11.63
2017-10-23T06:45:22.241Z,11.62
2017-10-23T06:47:48.565Z,11.61
2017-10-23T06:50:15.126Z,11.63
2017-10-23T06:52:41.467Z,11.62
2017-10-23T06:55:08.649Z,11.63
2017-10-23T06:57:35.472Z,11.66
2017-10-23T07:00:01.890Z,11.66
2017-10-23T07:02:28.174Z,11.65
2017-10-23T07:04:55.266Z,11.74
2017-10-23T07:07:21.565Z,11.76
2017-10-23T07:09:47.913Z,11.74
2017-10-23T07:12:14.465Z,11.74
2017-10-23T07:14:40.792Z,11.81
2017-10-23T07:17:07.201Z,11.78
2017-10-23T07:19:33.689Z,11.76
2017-10-23T07:21:59.988Z,11.79
2017-10-23T07:24:26.284Z,11.83
2017-10-23T07:26:52.829Z,11.80
2017-10-23T07:29:19.084Z,11.80
2017-10-23T07:31:45.366Z,11.82
2017-10-23T07:34:12.441Z,11.84
2017-10-23T07:36:38.753Z,11.85
2017-10-23T07:39:06.195Z,11.89
2017-10-23T07:41:33.420Z,11.83
2017-10-23T07:44:00.648Z,11.87
2017-10-23T07:46:27.448Z,11.92
2017-10-23T07:48:54.497Z,11.88
2017-10-23T07:51:20.772Z,11.85
2017-10-23T07:53:47.125Z,11.88
2017-10-23T07:56:13.416Z,11.85
2017-10-23T07:58:39.732Z,11.84
2017-10-23T08:01:06.049Z,11.86
2017-10-23T08:03:32.332Z,11.85
2017-10-23T08:05:58.588Z,11.89
2017-10-23T08:08:25.625Z,11.92
2017-10-23T08:10:51.906Z,11.97
2017-10-23T08:13:18.517Z,11.95
2017-10-23T08:15:44.930Z,11.94
2017-10-23T08:18:11.964Z,11.97
2017-10-23T08:20:38.230Z,12.00
2017-10-23T08:23:04.744Z,11.90
2017-10-23T08:25:31.766Z,11.94
2017-10-23T08:27:58.034Z,11.94
2017-10-23T08:30:24.307Z,11.91
2017-10-23T08:32:50.569Z,11.91
2017-10-23T08:35:16.845Z,11.92
2017-10-23T08:37:43.484Z,11.84
2017-10-23T08:40:09.768Z,11.86
2017-10-23T08:42:36.812Z,11.90
2017-10-23T08:45:03.147Z,11.93
2017-10-23T08:47:30.196Z,11.88
2017-10-23T08:49:57.228Z,11.88
2017-10-23T08:52:23.722Z,11.89
2017-10-23T08:54:50.024Z,11.86
2017-10-23T08:57:16.293Z,11.89
2017-10-23T08:59:42.623Z,11.96
2017-10-23T09:02:08.912Z,11.88
2017-10-23T09:04:35.219Z,11.94
2017-10-23T09:07:02.349Z,11.89
2017-10-23T09:09:28.686Z,11.91
2017-10-23T09:11:54.945Z,11.85
2017-10-23T09:14:22.325Z,11.91
2017-10-23T09:16:48.584Z,12.26
2017-10-23T09:19:14.891Z,12.19
2017-10-23T09:21:41.193Z,12.27
2017-10-23T09:24:07.509Z,12.42
2017-10-23T09:26:34.517Z,12.16
2017-10-23T09:29:00.797Z,12.35
2017-10-23T09:31:27.846Z,12.22
2017-10-23T09:33:54.141Z,12.50
2017-10-23T09:36:20.480Z,12.30
2017-10-23T09:38:46.784Z,12.73
2017-10-23T09:41:13.045Z,12.29
2017-10-23T09:43:40.038Z,12.15
2017-10-23T09:46:06.332Z,12.07
2017-10-23T09:48:33.320Z,12.07
2017-10-23T09:50:59.589Z,12.07
2017-10-23T09:53:25.865Z,12.03
2017-10-23T09:55:52.148Z,12.06
2017-10-23T09:58:18.434Z,12.11
2017-10-23T10:00:44.733Z,12.13
2017-10-23T10:03:11.813Z,12.08
2017-10-23T10:05:38.119Z,12.10
2017-10-23T10:08:04.685Z,12.13
2017-10-23T10:10:30.944Z,12.12
2017-10-23T10:12:57.233Z,12.20
2017-10-23T10:15:23.843Z,12.19
2017-10-23T10:17:50.101Z,12.19
2017-10-23T10:20:16.381Z,12.15
2017-10-23T10:22:43.411Z,12.11
2017-10-23T10:25:09.674Z,12.14
2017-10-23T10:27:36.022Z,12.19
2017-10-23T10:30:02.310Z,12.14
2017-10-23T10:32:28.559Z,12.16
2017-10-23T10:34:55.986Z,12.20
2017-10-23T10:37:22.613Z,12.28
2017-10-23T10:39:49.078Z,12.22
2017-10-23T10:42:16.115Z,12.27
2017-10-23T10:44:43.456Z,12.26
2017-10-23T10:47:09.722Z,12.30
2017-10-23T10:49:36.325Z,12.30
2017-10-23T10:52:03.366Z,12.28
2017-10-23T10:54:29.646Z,12.30
2017-10-23T10:56:56.246Z,12.30
2017-10-23T10:59:22.525Z,12.32
2017-10-23T11:01:48.810Z,12.35
2017-10-23T11:04:16.041Z,12.41
2017-10-23T11:06:42.330Z,12.31
2017-10-23T11:09:08.634Z,12.38
2017-10-23T11:11:35.705Z,12.44
2017-10-23T11:14:02.037Z,12.46
2017-10-23T11:16:28.338Z,12.48
2017-10-23T11:18:55.421Z,12.48
2017-10-23T11:21:21.797Z,12.48
2017-10-23T11:23:48.081Z,12.45
2017-10-23T11:26:15.217Z,12.44
2017-10-23T11:28:41.521Z,12.44
2017-10-23T11:31:08.546Z,12.45
2017-10-23T11:33:35.601Z,12.56
2017-10-23T11:36:02.617Z,12.53
2017-10-23T11:38:29.252Z,12.53
2017-10-23T11:40:55.886Z,12.53
2017-10-23T11:43:22.396Z,12.54
2017-10-23T11:45:48.702Z,12.60
2017-10-23T11:48:21.752Z,12.59
2017-10-23T11:50:48.324Z,12.62
2017-10-23T11:53:15.392Z,12.52
2017-10-23T11:55:41.559Z,12.45
2017-10-23T11:58:08.054Z,12.46
2017-10-23T12:00:34.288Z,12.48
2017-10-23T12:03:00.487Z,12.46
2017-10-23T12:05:27.439Z,12.45
2017-10-23T12:07:54.345Z,12.51
2017-10-23T12:10:20.783Z,12.56
2017-10-23T12:12:47.417Z,12.45
2017-10-23T12:15:13.625Z,12.40
2017-10-23T12:17:39.833Z,12.35
2017-10-23T12:20:06.039Z,12.40
2017-10-23T12:22:32.236Z,12.47
2017-10-23T12:24:58.906Z,12.32
2017-10-23T12:27:25.403Z,12.18
2017-10-23T12:29:51.795Z,12.19
2017-10-23T12:32:17.979Z,12.25
2017-10-23T12:34:44.957Z,12.20
2017-10-23T12:37:11.167Z,12.28
2017-10-23T12:39:38.130Z,12.31
2017-10-23T12:42:04.373Z,12.39
2017-10-23T12:44:30.539Z,12.37
2017-10-23T12:46:56.993Z,12.46
2017-10-23T12:49:25.188Z,12.45
2017-10-23T12:51:51.356Z,12.42
2017-10-23T12:54:17.983Z,12.32
2017-10-23T12:56:44.477Z,12.29
2017-10-23T12:59:10.656Z,12.34
2017-10-23T13:01:36.842Z,12.61
2017-10-23T13:04:03.056Z,12.59
2017-10-23T13:06:29.250Z,12.99
2017-10-23T13:08:55.616Z,13.08
2017-10-23T13:11:22.070Z,13.31
2017-10-23T13:13:48.256Z,13.14
2017-10-23T13:16:15.184Z,13.25
2017-10-23T13:18:41.560Z,13.84
2017-10-23T13:21:07.742Z,13.59
2017-10-23T13:23:34.022Z,13.23
2017-10-23T13:26:00.673Z,13.76
2017-10-23T13:28:27.043Z,13.53
2017-10-23T13:30:53.411Z,13.51
2017-10-23T13:33:19.598Z,13.42
2017-10-23T13:35:45.796Z,13.46
2017-10-23T13:38:12.311Z,13.58
2017-10-23T13:40:38.512Z,13.64
2017-10-23T13:43:05.687Z,13.60
2017-10-23T13:45:31.888Z,13.68
2017-10-23T13:47:58.796Z,13.51
2017-10-23T13:50:24.972Z,13.73
2017-10-23T13:52:51.439Z,13.79
2017-10-23T13:55:17.616Z,13.46
2017-10-23T13:57:44.540Z,13.57
2017-10-23T14:00:10.951Z,13.61
2017-10-23T14:02:37.183Z,13.83
2017-10-23T14:05:03.351Z,13.64
2017-10-23T14:07:30.455Z,13.43
2017-10-23T14:09:56.628Z,13.38
2017-10-23T14:12:23.879Z,13.57
2017-10-23T14:14:51.148Z,13.58
2017-10-23T14:17:17.496Z,13.84
2017-10-23T14:19:44.104Z,13.69
2017-10-23T14:22:11.269Z,13.84
2017-10-23T14:24:37.485Z,13.99
2017-10-23T14:27:04.087Z,13.58
2017-10-23T14:29:31.606Z,13.35
2017-10-23T14:31:58.055Z,13.35
2017-10-23T14:34:24.671Z,13.37
2017-10-23T14:36:50.915Z,13.26
2017-10-23T14:39:17.191Z,13.29
2017-10-23T14:41:44.177Z,13.55
2017-10-23T14:44:10.555Z,13.39
2017-10-23T14:46:36.753Z,13.40
2017-10-23T14:49:02.989Z,13.51
2017-10-23T14:51:29.584Z,13.37
2017-10-23T14:53:55.796Z,13.39
2017-10-23T14:56:22.728Z,13.25
2017-10-23T14:58:49.869Z,13.20
2017-10-23T15:01:16.069Z,13.22
2017-10-23T15:03:42.995Z,13.53
2017-10-23T15:06:09.512Z,13.43
2017-10-23T15:08:35.716Z,13.57
2017-10-23T15:11:02.635Z,13.49
2017-10-23T15:13:29.012Z,13.39
2017-10-23T15:15:55.463Z,13.46
2017-10-23T15:18:21.671Z,13.29
2017-10-23T15:20:47.971Z,13.33
2017-10-23T15:23:14.159Z,13.32
2017-10-23T15:25:40.376Z,13.53
2017-10-23T15:28:06.987Z,13.60
2017-10-23T15:30:33.401Z,13.69
2017-10-23T15:32:59.628Z,13.83
2017-10-23T15:35:25.817Z,14.14
2017-10-23T15:37:52.000Z,14.25
2017-10-23T15:40:18.917Z,14.42
2017-10-23T15:42:45.459Z,14.78
2017-10-23T15:45:11.638Z,14.83
2017-10-23T15:47:37.812Z,14.70
2017-10-23T15:50:03.988Z,14.87
2017-10-23T15:52:30.167Z,14.28
2017-10-23T15:54:56.553Z,14.23
2017-10-23T15:57:22.756Z,14.33
2017-10-23T15:59:48.951Z,14.29
2017-10-23T16:02:16.336Z,14.64
2017-10-23T16:04:42.837Z,14.85
2017-10-23T16:07:09.010Z,14.54
2017-10-23T16:09:35.407Z,14.01
2017-10-23T16:12:02.343Z,14.49
2017-10-23T16:14:28.683Z,14.28
2017-10-23T16:16:55.607Z,14.38
2017-10-23T16:19:22.084Z,14.60
2017-10-23T16:21:48.263Z,14.54
2017-10-23T16:24:14.453Z,14.48
2017-10-23T16:26:40.727Z,14.11
2017-10-23T16:29:07.692Z,14.46
2017-10-23T16:31:34.652Z,14.59
2017-10-23T16:34:01.568Z,15.07
2017-10-23T16:36:27.751Z,14.90
2017-10-23T16:38:53.964Z,14.78
2017-10-23T16:41:20.131Z,14.37
2017-10-23T16:43:46.316Z,14.42
2017-10-23T16:46:13.268Z,14.40
2017-10-23T16:48:39.457Z,14.01
2017-10-23T16:51:06.395Z,14.63
2017-10-23T16:53:32.979Z,14.58
2017-10-23T16:55:59.130Z,14.47
2017-10-23T16:58:25.279Z,14.52
2017-10-23T17:00:51.519Z,14.78
2017-10-23T17:03:18.424Z,14.24
2017-10-23T17:05:44.590Z,14.08
2017-10-23T17:08:11.631Z,13.43
2017-10-23T17:10:38.548Z,13.40
2017-10-23T17:13:04.708Z,13.18
2017-10-23T17:15:31.631Z,13.30
2017-10-23T17:17:58.159Z,13.75
2017-10-23T17:20:24.409Z,13.28
2017-10-23T17:22:51.574Z,13.33
2017-10-23T17:25:17.751Z,13.69
2017-10-23T17:27:43.969Z,14.08
2017-10-23T17:30:10.463Z,14.05
2017-10-23T17:32:36.675Z,14.34
2017-10-23T17:35:03.647Z,13.80
2017-10-23T17:37:29.865Z,13.36
2017-10-23T17:39:56.784Z,13.67
2017-10-23T17:42:23.088Z,13.51
2017-10-23T17:44:49.246Z,14.14
2017-10-23T17:47:16.197Z,14.11
2017-10-23T17:49:43.243Z,13.86
2017-10-23T17:52:10.804Z,13.65
2017-10-23T17:54:37.928Z,14.05
2017-10-23T17:57:04.111Z,14.08
2017-10-23T17:59:30.273Z,13.58
2017-10-23T18:01:56.474Z,13.89
2017-10-23T18:04:22.657Z,13.77
2017-10-23T18:06:49.568Z,14.19
2017-10-23T18:09:15.763Z,14.27
2017-10-23T18:11:42.113Z,14.55
2017-10-23T18:14:08.289Z,14.05
2017-10-23T18:16:35.293Z,13.95
2017-10-23T18:19:01.485Z,13.36
2017-10-23T18:21:27.678Z,13.13
2017-10-23T18:23:54.040Z,12.90
2017-10-23T18:26:20.223Z,12.80
2017-10-23T18:28:46.468Z,12.59
2017-10-23T18:31:12.731Z,12.58
2017-10-23T18:33:39.115Z,12.59
2017-10-23T18:36:05.345Z,12.49
2017-10-23T18:38:31.740Z,12.45
2017-10-23T18:40:58.070Z,12.48
2017-10-23T18:43:24.384Z,12.29
2017-10-23T18:45:50.571Z,12.20
2017-10-23T18:48:16.758Z,12.13
2017-10-23T18:50:43.452Z,12.11
2017-10-23T18:53:10.384Z,12.11
2017-10-23T18:55:36.567Z,12.26
2017-10-23T18:58:03.189Z,12.22
2017-10-23T19:00:29.836Z,11.99
2017-10-23T19:02:56.232Z,11.84
2017-10-23T19:05:22.515Z,11.79
2017-10-23T19:07:48.747Z,12.26
2017-10-23T19:10:15.031Z,12.07
2017-10-23T19:12:41.299Z,12.31
2017-10-23T19:15:07.935Z,12.60
2017-10-23T19:17:34.372Z,12.42
2017-10-23T19:20:00.541Z,12.65
2017-10-23T19:22:27.730Z,12.46
2017-10-23T19:24:53.912Z,12.60
2017-10-23T19:27:20.821Z,12.41
2017-10-23T19:29:47.038Z,12.37
2017-10-23T19:32:13.338Z,12.45
2017-10-23T19:34:39.621Z,12.46
2017-10-23T19:37:06.238Z,12.73
2017-10-23T19:39:32.786Z,12.70
2017-10-23T19:41:59.456Z,12.41
2017-10-23T19:44:25.895Z,12.38
2017-10-23T19:46:52.156Z,12.42
2017-10-23T19:49:19.076Z,12.49
2017-10-23T19:51:45.271Z,12.28
2017-10-23T19:54:11.578Z,12.47
2017-10-23T19:56:37.779Z,12.38
2017-10-23T19:59:04.711Z,12.19
2017-10-23T20:01:31.256Z,12.28
2017-10-23T20:03:57.505Z,12.28
2017-10-23T20:06:23.726Z,12.24
2017-10-23T20:08:49.931Z,12.37
2017-10-23T20:11:16.492Z,12.21
2017-10-23T20:13:42.653Z,12.07
2017-10-23T20:16:08.854Z,12.13
2017-10-23T20:18:35.020Z,12.07
2017-10-23T20:21:01.944Z,12.10
2017-10-23T20:23:28.319Z,12.13
2017-10-23T20:25:55.215Z,12.11
2017-10-23T20:28:21.367Z,12.04
2017-10-23T20:30:48.544Z,12.07
2017-10-23T20:33:14.716Z,12.08
2017-10-23T20:35:40.901Z,12.02
2017-10-23T20:38:07.078Z,11.98
2017-10-23T20:40:33.268Z,12.03
2017-10-23T20:42:59.429Z,12.14
2017-10-23T20:45:25.639Z,12.06
2017-10-23T20:47:51.802Z,12.05
2017-10-23T20:50:17.954Z,11.96
2017-10-23T20:52:44.145Z,11.80
2017-10-23T20:55:10.346Z,11.78
2017-10-23T20:57:36.503Z,11.88
2017-10-23T21:00:03.085Z,11.96
2017-10-23T21:02:29.252Z,11.83
2017-10-23T21:05:23.866Z,11.87
2017-10-23T21:07:50.021Z,11.97
2017-10-23T21:10:16.184Z,12.01
2017-10-23T21:12:42.392Z,12.02
2017-10-23T21:15:08.577Z,12.01
2017-10-23T21:17:35.521Z,12.08
2017-10-23T21:20:02.512Z,12.04
2017-10-23T21:22:28.676Z,11.98
2017-10-23T21:24:54.844Z,12.03
2017-10-23T21:27:21.031Z,12.04
2017-10-23T21:29:47.191Z,12.02
2017-10-23T21:32:13.356Z,12.04
2017-10-23T21:34:39.792Z,11.99
2017-10-23T21:37:05.951Z,11.99
2017-10-23T21:39:32.183Z,12.10
2017-10-23T21:41:59.148Z,12.16
2017-10-23T21:44:26.059Z,12.03
2017-10-23T21:47:09.646Z,11.90
2017-10-23T21:49:35.841Z,11.84
2017-10-23T21:52:02.749Z,11.91
2017-10-23T21:54:29.142Z,11.94
2017-10-23T21:56:55.303Z,11.96
2017-10-23T21:59:21.478Z,12.01
2017-10-23T22:01:48.749Z,12.02
2017-10-23T22:04:14.929Z,12.02
2017-10-23T22:06:41.127Z,11.97
2017-10-23T22:09:07.359Z,11.92
2017-10-23T22:11:33.522Z,11.93
2017-10-23T22:13:59.699Z,11.98
2017-10-23T22:16:25.888Z,11.96
2017-10-23T22:18:52.803Z,11.97
2017-10-23T22:21:18.972Z,12.02
2017-10-23T22:23:45.152Z,12.02
2017-10-23T22:26:11.319Z,12.02
2017-10-23T22:28:38.223Z,12.00
2017-10-23T22:31:04.708Z,11.96
2017-10-23T22:33:30.868Z,11.95
2017-10-23T22:35:57.033Z,11.96
2017-10-23T22:38:24.322Z,11.97
2017-10-23T22:40:50.497Z,11.97
2017-10-23T22:43:16.661Z,11.96
2017-10-23T22:45:42.855Z,11.98
2017-10-23T22:48:09.012Z,11.99
2017-10-23T22:50:35.200Z,12.00
2017-10-23T22:53:01.389Z,11.98
2017-10-23T22:55:27.576Z,11.99
2017-10-23T22:57:54.524Z,11.99
2017-10-23T23:00:21.701Z,11.98
2017-10-23T23:02:47.895Z,11.94
2017-10-23T23:05:14.069Z,11.97
2017-10-23T23:07:40.282Z,11.96
2017-10-23T23:10:06.483Z,11.95
2017-10-23T23:12:33.415Z,11.96
2017-10-23T23:14:59.620Z,11.97
2017-10-23T23:17:25.784Z,11.94
2017-10-23T23:19:52.701Z,11.93
2017-10-23T23:22:18.891Z,11.86
2017-10-23T23:24:45.109Z,11.82
2017-10-23T23:27:11.299Z,11.78
2017-10-23T23:29:37.569Z,11.86
2017-10-23T23:32:03.734Z,11.86
2017-10-23T23:34:29.900Z,11.78
2017-10-23T23:36:56.805Z,11.78
2017-10-23T23:39:23.003Z,11.84
2017-10-23T23:41:49.199Z,11.87
2017-10-23T23:44:15.397Z,11.94
2017-10-23T23:46:41.567Z,11.93
2017-10-23T23:49:07.744Z,11.85
2017-10-23T23:51:33.915Z,11.90
2017-10-23T23:54:00.111Z,12.06
2017-10-23T23:56:26.274Z,11.93
2017-10-23T23:58:52.440Z,11.96
